Time;durP1;ratioP1;P1;durP2;ratioP2;P2;SDS_P1;SDS_P2;PMS_P1;PMS_P2;Temp;Humidity;BMP_temperature;BMP_pressure;BME280_temperature;BME280_humidity;BME280_pressure;Samples;Min_cycle;Max_cycle;Signal;HPM_P1;HPM_P2
2022/08/30 00:02:51;;;;;;;16.48;8.27;;;;;;;19.84;65.23;94126.47;5063421;28;20028;-75
2022/08/30 00:05:16;;;;;;;10.68;7.85;;;;;;;19.81;65.05;94125.28;5063341;28;20327;-75
2022/08/30 00:07:42;;;;;;;15.52;7.90;;;;;;;19.78;65.14;94131.44;5063486;28;20074;-75
2022/08/30 00:10:09;;;;;;;15.98;8.02;;;;;;;19.75;65.41;94131.38;5063357;28;20024;-77
2022/08/30 00:12:35;;;;;;;13.77;7.35;;;;;;;19.73;65.63;94128.25;5062970;28;20143;-77
2022/08/30 00:15:00;;;;;;;10.07;7.20;;;;;;;19.67;65.75;94122.34;5063259;28;20032;-76
2022/08/30 00:17:26;;;;;;;18.17;7.63;;;;;;;19.65;66.04;94121.94;5063251;28;20095;-76
2022/08/30 00:19:51;;;;;;;14.10;7.90;;;;;;;19.62;66.18;94122.66;5063208;28;20219;-76
2022/08/30 00:22:16;;;;;;;11.38;7.85;;;;;;;19.59;66.34;94129.56;5062793;28;20021;-76
2022/08/30 00:24:42;;;;;;;12.57;7.82;;;;;;;19.58;66.43;94127.22;5063032;28;20361;-76
2022/08/30 00:27:08;;;;;;;10.73;7.32;;;;;;;19.53;66.46;94125.63;5063146;28;20025;-76
2022/08/30 00:29:33;;;;;;;12.25;8.45;;;;;;;19.52;66.51;94120.56;5063017;28;20024;-77
2022/08/30 00:32:00;;;;;;;15.65;8.85;;;;;;;19.49;66.67;94118.59;5062719;28;20027;-77
2022/08/30 00:34:25;;;;;;;16.40;9.65;;;;;;;19.44;67.14;94120.47;5062923;28;20024;-77
2022/08/30 00:36:50;;;;;;;20.42;8.75;;;;;;;19.42;66.72;94117.34;5062767;28;20219;-77
2022/08/30 00:39:16;;;;;;;16.10;8.77;;;;;;;19.40;67.16;94122.34;5062658;28;20021;-77
2022/08/30 00:41:41;;;;;;;16.52;8.98;;;;;;;19.42;67.37;94133.56;5061712;28;20094;-77
2022/08/30 00:44:07;;;;;;;12.77;8.75;;;;;;;19.40;67.53;94129.69;5063007;28;20041;-76
2022/08/30 00:46:32;;;;;;;12.20;8.32;;;;;;;19.38;67.10;94123.84;5062807;28;20331;-76
2022/08/30 00:49:02;;;;;;;14.23;8.32;;;;;;;19.36;66.76;94121.50;5062442;28;20029;-76
2022/08/30 00:51:27;;;;;;;14.38;8.20;;;;;;;19.36;67.19;94126.13;5062872;28;20079;-76
2022/08/30 00:53:55;;;;;;;12.73;8.57;;;;;;;19.34;67.44;94134.59;5062389;28;20044;-77
2022/08/30 00:56:24;;;;;;;17.02;9.15;;;;;;;19.33;67.43;94135.72;5062486;28;20028;-77
2022/08/30 00:58:52;;;;;;;15.02;8.68;;;;;;;19.33;67.64;94132.25;5062616;28;20123;-77
2022/08/30 01:01:18;;;;;;;19.60;8.93;;;;;;;19.34;67.93;94144.63;5062711;28;20044;-76
2022/08/30 01:03:45;;;;;;;15.32;8.45;;;;;;;19.34;67.83;94144.63;5062742;28;20071;-76
2022/08/30 01:06:14;;;;;;;13.95;8.38;;;;;;;19.34;67.65;94133.81;5062592;28;20024;-77
2022/08/30 01:08:40;;;;;;;18.52;8.48;;;;;;;19.36;67.21;94129.59;5062618;28;20125;-77
2022/08/30 01:11:06;;;;;;;14.23;8.10;;;;;;;19.36;67.24;94131.53;5062498;28;20043;-77
2022/08/30 01:13:34;;;;;;;16.48;8.85;;;;;;;19.33;67.49;94119.50;5061182;28;20208;-77
2022/08/30 01:16:00;;;;;;;14.48;8.75;;;;;;;19.31;67.41;94119.09;5062422;28;20057;-76
2022/08/30 01:18:27;;;;;;;12.80;8.73;;;;;;;19.32;67.67;94115.25;5062495;28;20070;-76
2022/08/30 01:21:11;;;;;;;12.55;8.52;;;;;;;19.32;67.78;94117.97;5062464;28;20033;-77
2022/08/30 01:23:42;;;;;;;14.93;9.02;;;;;;;19.29;67.50;94117.91;5062533;28;20211;-77
2022/08/30 01:26:08;;;;;;;16.23;8.45;;;;;;;19.26;67.66;94115.94;5062562;28;20028;-77
2022/08/30 01:28:34;;;;;;;12.48;8.30;;;;;;;19.26;68.10;94122.13;5062232;28;20020;-77
2022/08/30 01:31:00;;;;;;;11.63;7.97;;;;;;;19.24;68.19;94119.00;5062345;28;20029;-77
2022/08/30 01:33:26;;;;;;;14.57;8.50;;;;;;;19.23;67.87;94118.22;5062356;28;20033;-77
2022/08/30 01:36:13;;;;;;;11.77;8.07;;;;;;;19.20;67.93;94123.56;5062215;28;20035;-77
2022/08/30 01:38:42;;;;;;;19.40;8.93;;;;;;;19.17;67.98;94126.97;5062447;28;20254;-77
2022/08/30 01:41:19;;;;;;;15.75;9.02;;;;;;;19.16;68.26;94120.78;5062562;28;20025;-77
2022/08/30 01:43:45;;;;;;;16.30;8.82;;;;;;;19.14;68.22;94125.00;5062012;28;20017;-82
2022/08/30 01:46:13;;;;;;;16.15;9.25;;;;;;;19.09;68.65;94123.38;5062331;28;20021;-77
2022/08/30 01:48:40;;;;;;;16.05;9.75;;;;;;;19.07;68.60;94124.88;5062230;28;20025;-76
2022/08/30 01:51:10;;;;;;;14.98;9.20;;;;;;;19.04;68.47;94121.75;5062079;28;20254;-76
2022/08/30 01:53:35;;;;;;;12.43;9.40;;;;;;;18.97;67.96;94121.63;5061904;28;20220;-74
2022/08/30 01:56:01;;;;;;;25.17;11.27;;;;;;;18.96;67.65;94120.06;5062037;28;20055;-74
2022/08/30 01:58:27;;;;;;;14.20;9.25;;;;;;;18.92;67.92;94119.22;5061927;28;20021;-76
2022/08/30 02:00:53;;;;;;;15.90;9.45;;;;;;;18.88;68.03;94118.38;5064063;28;20020;-75
2022/08/30 02:03:18;;;;;;;13.60;8.73;;;;;;;18.88;68.71;94107.56;5065825;28;20369;-75
2022/08/30 02:05:44;;;;;;;16.40;9.02;;;;;;;18.88;68.80;94106.81;5065718;28;20025;-75
2022/08/30 02:08:09;;;;;;;12.32;9.30;;;;;;;18.85;68.93;94108.31;5065596;28;20021;-75
2022/08/30 02:10:35;;;;;;;20.60;10.20;;;;;;;18.78;68.89;94118.94;5065574;28;20023;-74
2022/08/30 02:13:00;;;;;;;14.98;9.23;;;;;;;18.77;69.42;94118.16;5064251;28;20052;-74
2022/08/30 02:15:26;;;;;;;18.15;9.65;;;;;;;18.74;69.38;94105.38;5065460;28;20074;-75
2022/08/30 02:17:51;;;;;;;16.05;9.48;;;;;;;18.74;69.63;94107.31;5065146;28;20044;-75
2022/08/30 02:20:17;;;;;;;20.27;9.07;;;;;;;18.73;69.36;94101.13;5065520;28;20029;-75
2022/08/30 02:22:42;;;;;;;16.20;9.10;;;;;;;18.71;69.38;94100.69;5065457;28;20075;-76
2022/08/30 02:25:08;;;;;;;10.90;8.40;;;;;;;18.69;69.58;94094.09;5065492;28;20227;-75
2022/08/30 02:27:34;;;;;;;17.55;9.05;;;;;;;18.67;69.93;94093.69;5065162;28;20090;-75
2022/08/30 02:29:59;;;;;;;14.85;9.35;;;;;;;18.65;69.84;94094.81;5065149;28;20055;-76
2022/08/30 02:32:25;;;;;;;18.55;9.00;;;;;;;18.61;69.73;94085.09;5065061;28;20017;-76
2022/08/30 02:34:50;;;;;;;15.68;9.55;;;;;;;18.60;69.64;94097.00;5065135;28;20024;-76
2022/08/30 02:37:16;;;;;;;22.90;9.38;;;;;;;18.61;69.61;94098.59;5065246;28;20096;-76
2022/08/30 02:39:42;;;;;;;14.57;8.93;;;;;;;18.58;69.55;94100.09;5065092;28;20013;-74
2022/08/30 02:42:07;;;;;;;19.13;9.40;;;;;;;18.55;69.55;94094.63;5064850;28;20029;-75
2022/08/30 02:44:33;;;;;;;16.05;8.73;;;;;;;18.60;69.84;94097.00;5064793;28;20035;-75
2022/08/30 02:46:58;;;;;;;14.52;8.75;;;;;;;18.57;69.59;94093.13;5064911;28;20193;-75
2022/08/30 02:49:24;;;;;;;16.10;9.55;;;;;;;18.52;69.71;94095.31;5064854;28;20316;-76
2022/08/30 02:51:49;;;;;;;18.23;8.85;;;;;;;18.49;69.85;94096.06;5064672;28;20044;-75
2022/08/30 02:54:18;;;;;;;15.55;9.73;;;;;;;18.42;69.67;94096.72;5064629;28;20354;-76
2022/08/30 02:56:47;;;;;;;15.57;9.68;;;;;;;18.32;70.02;94097.25;5064694;28;20025;-75
2022/08/30 02:59:15;;;;;;;14.27;9.48;;;;;;;18.21;70.34;94084.34;5064716;28;20021;-77
2022/08/30 03:01:41;;;;;;;19.42;10.35;;;;;;;18.15;70.98;94090.38;5064645;28;20025;-76
2022/08/30 03:04:06;;;;;;;16.25;9.23;;;;;;;18.09;71.29;94089.88;5064546;28;20021;-76
2022/08/30 03:06:32;;;;;;;18.92;10.57;;;;;;;18.04;71.52;94100.97;5064481;28;20079;-76
2022/08/30 03:08:58;;;;;;;15.70;9.70;;;;;;;18.04;71.77;94096.34;5064628;28;20104;-76
2022/08/30 03:11:24;;;;;;;16.98;9.93;;;;;;;18.08;71.96;94101.03;5063213;28;20024;-76
2022/08/30 03:13:49;;;;;;;17.92;10.02;;;;;;;18.12;71.68;94099.97;5064180;28;20028;-76
2022/08/30 03:16:15;;;;;;;19.73;10.82;;;;;;;18.14;71.88;94105.03;5064312;28;20024;-76
2022/08/30 03:18:44;;;;;;;20.40;9.65;;;;;;;18.16;71.96;94100.81;5064363;28;20025;-76
2022/08/30 03:21:11;;;;;;;15.90;10.57;;;;;;;18.19;71.90;94104.72;5064483;28;20263;-76
2022/08/30 03:23:37;;;;;;;17.25;9.77;;;;;;;18.20;71.85;94111.69;5064498;28;20021;-76
2022/08/30 03:26:03;;;;;;;14.48;10.32;;;;;;;18.21;71.83;94105.16;5063978;28;20056;-76
2022/08/30 03:28:28;;;;;;;14.00;9.52;;;;;;;18.24;72.11;94110.63;5063905;28;20139;-76
2022/08/30 03:30:54;;;;;;;13.95;9.88;;;;;;;18.25;72.15;94104.06;5064199;28;20025;-75
2022/08/30 03:33:20;;;;;;;18.15;10.60;;;;;;;18.28;72.17;94104.50;5063826;28;20033;-75
2022/08/30 03:35:46;;;;;;;15.35;10.20;;;;;;;18.29;71.95;94108.78;5063938;28;20078;-78
2022/08/30 03:38:12;;;;;;;17.67;10.25;;;;;;;18.29;72.23;94108.78;5063737;28;20048;-79
2022/08/30 03:40:38;;;;;;;17.27;10.18;;;;;;;18.29;72.20;94111.47;5063889;28;20016;-79
2022/08/30 03:43:03;;;;;;;16.30;11.45;;;;;;;18.30;72.06;94113.81;5063838;28;20092;-79
2022/08/30 03:45:29;;;;;;;16.70;10.13;;;;;;;18.30;72.34;94110.31;5063603;28;20315;-77
2022/08/30 03:47:54;;;;;;;18.75;11.82;;;;;;;18.30;72.07;94110.31;5063569;28;20302;-77
2022/08/30 03:50:19;;;;;;;18.67;10.70;;;;;;;18.31;72.23;94103.81;5063714;28;20096;-77
2022/08/30 03:52:45;;;;;;;15.43;10.77;;;;;;;18.32;72.32;94105.34;5063326;28;20052;-77
2022/08/30 03:55:11;;;;;;;17.05;9.82;;;;;;;18.32;72.39;94113.44;5063710;28;20017;-77
2022/08/30 03:57:39;;;;;;;19.17;10.68;;;;;;;18.32;72.47;94103.44;5063498;28;20086;-77
2022/08/30 04:00:06;;;;;;;20.33;11.93;;;;;;;18.33;72.81;94120.41;5063438;28;20052;-77
2022/08/30 04:02:31;;;;;;;18.17;11.00;;;;;;;18.27;72.53;94102.94;5063311;28;20219;-77
2022/08/30 04:04:56;;;;;;;21.27;12.10;;;;;;;18.27;72.67;94111.03;5063318;28;20021;-77
2022/08/30 04:07:22;;;;;;;15.90;10.60;;;;;;;18.26;72.45;94104.88;5063448;28;20022;-77
2022/08/30 04:09:47;;;;;;;16.90;10.77;;;;;;;18.26;72.78;94104.88;5063180;28;20047;-77
2022/08/30 04:12:13;;;;;;;26.60;10.90;;;;;;;18.23;72.86;94109.03;5063191;28;20036;-77
2022/08/30 04:14:38;;;;;;;16.75;10.45;;;;;;;18.27;72.74;94119.13;5063292;28;20364;-77
2022/08/30 04:17:03;;;;;;;15.13;10.25;;;;;;;18.28;72.61;94115.28;5063178;28;20032;-77
2022/08/30 04:19:29;;;;;;;22.38;10.75;;;;;;;18.27;72.12;94117.22;5063195;28;20048;-77
2022/08/30 04:21:57;;;;;;;20.27;9.95;;;;;;;18.25;72.51;94122.97;5063064;28;20282;-77
2022/08/30 04:24:23;;;;;;;16.05;10.68;;;;;;;18.24;72.69;94126.03;5062563;28;20048;-77
2022/08/30 04:26:48;;;;;;;17.55;11.05;;;;;;;18.25;72.76;94125.66;5062888;28;20013;-77
2022/08/30 04:29:16;;;;;;;20.23;10.48;;;;;;;18.23;72.31;94116.38;5063031;28;20041;-76
2022/08/30 04:31:42;;;;;;;18.67;11.35;;;;;;;18.22;72.95;94117.50;5063233;28;20218;-77
2022/08/30 04:34:09;;;;;;;16.00;11.10;;;;;;;18.25;73.03;94122.97;5062971;28;20028;-77
2022/08/30 04:36:35;;;;;;;16.90;10.50;;;;;;;18.30;73.16;94127.31;5062762;28;20100;-77
2022/08/30 04:39:00;;;;;;;14.20;10.90;;;;;;;18.38;73.32;94131.72;5062638;28;20017;-76
2022/08/30 04:41:25;;;;;;;16.67;9.93;;;;;;;18.44;73.65;94124.13;5062693;28;20107;-76
2022/08/30 04:43:51;;;;;;;20.88;10.98;;;;;;;18.52;73.49;94130.41;5062641;28;20091;-77
2022/08/30 04:46:17;;;;;;;17.85;11.45;;;;;;;18.60;73.48;94141.00;5062727;28;20021;-78
2022/08/30 04:48:44;;;;;;;25.42;12.30;;;;;;;18.65;73.21;94138.00;5062798;28;20043;-78
2022/08/30 04:51:13;;;;;;;15.02;10.38;;;;;;;18.70;72.88;94133.44;5062857;28;20025;-77
2022/08/30 04:53:39;;;;;;;15.23;12.07;;;;;;;18.74;72.31;94145.09;5062270;28;20032;-76
2022/08/30 04:56:17;;;;;;;19.27;11.05;;;;;;;18.79;72.21;94145.63;5062597;28;20047;-77
2022/08/30 04:58:44;;;;;;;19.95;11.52;;;;;;;18.80;72.26;94146.41;5062564;28;20021;-77
2022/08/30 05:01:19;;;;;;;17.55;11.48;;;;;;;18.82;71.80;94149.53;5062606;28;20021;-77
2022/08/30 05:03:44;;;;;;;17.48;11.00;;;;;;;18.86;72.47;94152.28;5062440;28;20401;-77
2022/08/30 05:06:11;;;;;;;24.60;10.68;;;;;;;18.89;72.74;94157.75;5062576;28;20029;-76
2022/08/30 05:08:37;;;;;;;17.63;10.85;;;;;;;18.90;72.49;94164.72;5062495;28;20048;-76
2022/08/30 05:11:05;;;;;;;18.58;10.95;;;;;;;18.92;72.66;94159.72;5062643;28;20040;-77
2022/08/30 05:13:31;;;;;;;18.42;11.20;;;;;;;18.95;72.08;94158.22;5062639;28;20025;-76
2022/08/30 05:15:56;;;;;;;17.85;10.93;;;;;;;18.98;72.36;94166.41;5061149;28;20048;-77
2022/08/30 05:18:22;;;;;;;26.95;12.98;;;;;;;19.01;71.62;94160.28;5061323;28;20386;-76
2022/08/30 05:20:47;;;;;;;20.52;12.20;;;;;;;19.02;71.67;94161.84;5062339;28;20021;-76
2022/08/30 05:23:13;;;;;;;20.55;10.55;;;;;;;19.06;71.71;94163.84;5062513;28;20029;-76
2022/08/30 05:25:40;;;;;;;15.70;11.20;;;;;;;19.11;71.84;94167.03;5062785;28;20024;-77
2022/08/30 05:28:06;;;;;;;17.50;11.38;;;;;;;19.13;71.92;94167.47;5062143;28;20029;-77
2022/08/30 05:30:33;;;;;;;26.30;11.38;;;;;;;19.15;71.72;94165.19;5062006;28;20029;-77
2022/08/30 05:32:59;;;;;;;22.85;11.18;;;;;;;19.19;72.05;94162.50;5061674;28;20047;-77
2022/08/30 05:35:24;;;;;;;20.77;11.27;;;;;;;19.23;72.21;94169.56;5063133;28;20021;-76
2022/08/30 05:37:50;;;;;;;19.70;10.80;;;;;;;19.29;72.17;94174.66;5067008;28;20025;-90
2022/08/30 05:40:16;;;;;;;17.80;10.82;;;;;;;19.31;72.35;94161.56;5066733;28;20029;-89
2022/08/30 05:42:42;;;;;;;15.43;10.40;;;;;;;19.33;72.16;94170.09;5066315;28;20088;-88
2022/08/30 05:45:09;;;;;;;20.98;10.65;;;;;;;19.33;72.12;94170.09;5065470;28;20049;-89
2022/08/30 05:47:35;;;;;;;24.95;12.20;;;;;;;19.34;70.79;94167.03;5066576;28;20016;-89
2022/08/30 05:50:01;;;;;;;16.25;11.27;;;;;;;19.30;70.36;94160.78;5066432;28;20017;-88
2022/08/30 05:52:26;;;;;;;17.88;11.10;;;;;;;19.25;70.38;94169.19;5066301;28;20048;-88
2022/08/30 05:54:57;;;;;;;31.58;13.15;;;;;;;19.23;70.62;94171.47;5066409;28;20021;-75
2022/08/30 05:57:23;;;;;;;25.40;12.00;;;;;;;19.19;70.44;94163.31;5064752;28;20021;-87
2022/08/30 05:59:49;;;;;;;20.60;12.07;;;;;;;19.18;72.34;94169.06;5064468;28;20024;-87
2022/08/30 06:02:14;;;;;;;18.13;11.65;;;;;;;19.18;73.79;94161.75;5063674;28;20025;-86
2022/08/30 06:04:39;;;;;;;24.33;12.65;;;;;;;19.19;74.09;94157.09;5065110;28;20027;-87
2022/08/30 06:07:05;;;;;;;25.95;13.40;;;;;;;19.15;73.18;94165.19;5064635;28;20025;-88
2022/08/30 06:09:31;;;;;;;20.92;13.40;;;;;;;19.13;73.51;94166.66;5065877;28;20338;-86
2022/08/30 06:11:57;;;;;;;24.83;13.82;;;;;;;19.07;74.21;94168.91;5067064;28;20055;-90
2022/08/30 06:14:23;;;;;;;29.48;13.68;;;;;;;19.03;73.86;94165.31;5066887;28;20016;-89
2022/08/30 06:16:50;;;;;;;26.00;13.55;;;;;;;18.99;74.06;94169.88;5066764;28;20035;-90
2022/08/30 06:19:19;;;;;;;25.30;14.02;;;;;;;18.99;75.01;94178.78;5066560;28;20071;-88
2022/08/30 06:28:34;;;;;;;23.67;13.95;;;;;;;18.88;74.90;94187.81;4986856;28;20108;-88
2022/08/30 06:30:59;;;;;;;24.75;15.02;;;;;;;18.88;74.56;94183.19;5039543;28;20033;-88
2022/08/30 06:33:25;;;;;;;29.60;14.82;;;;;;;18.83;74.81;94188.91;5059435;28;20036;-91
2022/08/30 06:35:54;;;;;;;27.42;15.60;;;;;;;18.80;75.34;94186.91;5065643;28;20106;-91
2022/08/30 06:38:21;;;;;;;27.90;16.33;;;;;;;18.83;76.00;94191.59;5067175;28;20027;-93
2022/08/30 06:40:49;;;;;;;36.58;18.23;;;;;;;18.83;75.94;94197.00;5067147;28;20017;-92
2022/08/30 06:43:38;;;;;;;;;;;;;;;;;;;;;
2022/08/30 06:46:57;;;;;;;27.20;16.45;;;;;;;18.93;75.61;94207.22;5066696;28;20369;-93
2022/08/30 06:49:23;;;;;;;25.90;15.95;;;;;;;19.00;75.35;94204.63;5065721;28;20021;-86
2022/08/30 06:51:48;;;;;;;24.98;15.02;;;;;;;19.01;75.26;94195.41;5066336;28;20375;-87
2022/08/30 06:54:14;;;;;;;24.42;15.68;;;;;;;19.08;76.30;94202.09;5066118;28;20017;-87
2022/08/30 06:56:40;;;;;;;22.65;15.00;;;;;;;19.07;76.24;94203.22;5067060;28;20028;-89
2022/08/30 06:59:05;;;;;;;24.13;14.35;;;;;;;19.10;75.50;94208.69;5065088;28;20078;-90
2022/08/30 07:01:31;;;;;;;28.40;16.13;;;;;;;19.14;76.04;94203.34;5066196;28;20230;-92
2022/08/30 07:03:57;;;;;;;20.92;15.55;;;;;;;19.16;76.71;94209.94;5064282;28;20055;-88
2022/08/30 07:06:25;;;;;;;27.13;16.20;;;;;;;19.20;77.10;94208.09;5065783;28;20020;-91
2022/08/30 07:08:52;;;;;;;27.00;15.10;;;;;;;19.26;75.81;94214.00;5065711;28;20017;-87
2022/08/30 07:11:37;;;;;;;25.52;16.80;;;;;;;19.34;77.20;94209.50;5066010;28;20057;-88
2022/08/30 07:14:05;;;;;;;24.52;16.27;;;;;;;19.38;75.82;94208.41;5064340;28;20029;-92
2022/08/30 07:16:35;;;;;;;23.17;15.85;;;;;;;19.36;75.90;94204.50;5064638;28;20133;-92
2022/08/30 07:19:05;;;;;;;28.52;17.08;;;;;;;19.33;74.97;94207.91;5065907;28;20025;-94
2022/08/30 07:21:45;;;;;;;26.85;15.23;;;;;;;19.40;75.23;94214.22;5069242;28;20349;-95
2022/08/30 07:24:12;;;;;;;25.20;14.98;;;;;;;19.50;76.42;94209.34;5066984;28;20044;-93
2022/08/30 07:26:42;;;;;;;28.70;15.05;;;;;;;19.49;74.35;94213.22;5065603;28;20028;-87
2022/08/30 07:29:08;;;;;;;22.42;14.27;;;;;;;19.49;75.57;94216.69;5065420;28;20048;-90
2022/08/30 07:31:35;;;;;;;16.42;11.95;;;;;;;19.50;73.47;94214.75;5065087;28;20028;-87
2022/08/30 07:34:04;;;;;;;22.05;12.73;;;;;;;19.51;74.28;94221.75;5065319;28;20033;-93
2022/08/30 07:36:31;;;;;;;26.00;13.30;;;;;;;19.48;74.19;94219.75;5064970;28;20028;-90
2022/08/30 07:38:56;;;;;;;26.90;12.40;;;;;;;19.47;74.06;94218.19;5065098;28;20024;-88
2022/08/30 07:41:28;;;;;;;22.35;12.10;;;;;;;19.45;74.58;94216.63;5066713;28;20084;-94
2022/08/30 07:43:54;;;;;;;22.02;11.70;;;;;;;19.42;74.70;94220.06;5067571;28;20029;-94
2022/08/30 07:46:20;;;;;;;19.45;13.90;;;;;;;19.34;74.08;94221.06;5064146;28;20036;-88
2022/08/30 07:48:46;;;;;;;23.77;12.00;;;;;;;19.35;74.03;94219.91;5065444;28;20060;-90
2022/08/30 07:51:13;;;;;;;16.08;12.65;;;;;;;19.44;75.22;94219.72;5065572;28;20032;-92
2022/08/30 07:53:39;;;;;;;19.35;13.85;;;;;;;19.55;75.85;94223.34;5066236;28;20048;-93
2022/08/30 07:56:05;;;;;;;16.52;12.73;;;;;;;19.63;74.93;94216.16;5067325;28;20020;-92
2022/08/30 07:58:32;;;;;;;22.85;13.90;;;;;;;19.67;73.20;94230.50;5064092;28;20017;-91
2022/08/30 08:00:59;;;;;;;27.35;13.35;;;;;;;19.71;73.81;94223.25;5065190;28;20125;-95
2022/08/30 08:03:25;;;;;;;30.25;14.00;;;;;;;19.79;72.44;94227.63;5065049;28;20067;-88
2022/08/30 08:05:52;;;;;;;32.70;13.63;;;;;;;19.89;72.42;94225.47;5064667;28;20036;-92
2022/08/30 08:08:18;;;;;;;17.63;13.05;;;;;;;19.92;72.99;94228.22;5065208;28;20044;-91
2022/08/30 08:10:44;;;;;;;19.65;13.27;;;;;;;19.94;71.60;94230.56;5064783;28;20025;-86
2022/08/30 08:13:10;;;;;;;18.33;11.98;;;;;;;19.93;70.71;94239.84;5064863;28;20074;-92
2022/08/30 08:15:50;;;;;;;29.90;12.98;;;;;;;20.02;71.83;94232.22;5064629;28;20257;-92
2022/08/30 08:18:26;;;;;;;23.48;12.13;;;;;;;20.23;71.30;94237.16;5063795;28;20135;-86
2022/08/30 08:20:52;;;;;;;19.63;12.65;;;;;;;20.43;71.06;94243.25;5064192;28;20025;-93
2022/08/30 08:23:20;;;;;;;17.20;12.35;;;;;;;20.55;68.81;94239.53;5064201;28;20028;-91
2022/08/30 08:25:46;;;;;;;29.98;12.50;;;;;;;20.69;69.78;94236.28;5065152;28;20223;-91
2022/08/30 08:28:12;;;;;;;17.30;11.68;;;;;;;20.73;68.05;94228.97;5064812;28;20025;-92
2022/08/30 08:30:39;;;;;;;18.25;11.63;;;;;;;20.80;68.58;94237.16;5064390;28;20025;-93
2022/08/30 08:33:05;;;;;;;19.42;12.50;;;;;;;20.87;68.21;94234.56;5063840;28;20025;-87
2022/08/30 08:35:31;;;;;;;19.00;12.18;;;;;;;21.00;68.62;94235.09;5064455;28;20326;-92
2022/08/30 08:38:00;;;;;;;19.35;12.55;;;;;;;21.07;67.94;94228.97;5064286;28;20036;-88
2022/08/30 08:40:26;;;;;;;20.10;12.93;;;;;;;21.12;68.07;94220.50;5064017;28;20119;-93
2022/08/30 08:43:07;;;;;;;18.75;11.93;;;;;;;21.16;68.23;94232.94;5063082;28;20212;-87
2022/08/30 08:45:53;;;;;;;18.05;11.18;;;;;;;21.34;68.10;94227.69;5062830;28;20099;-90
2022/08/30 08:48:27;;;;;;;14.82;10.77;;;;;;;21.42;67.59;94223.94;5064330;28;20207;-90
2022/08/30 08:53:37;;;;;;;16.85;11.43;;;;;;;21.76;67.99;94229.28;5063682;28;20355;-88
2022/08/30 08:56:15;;;;;;;23.27;12.18;;;;;;;21.96;68.09;94237.16;5063574;28;20025;-88
2022/08/30 08:58:45;;;;;;;19.83;10.93;;;;;;;22.10;67.99;94233.78;5064155;28;20029;-89
2022/08/30 09:01:14;;;;;;;17.52;11.13;;;;;;;22.24;68.28;94231.97;5063977;28;20049;-90
2022/08/30 09:03:41;;;;;;;17.95;10.60;;;;;;;22.41;67.79;94232.47;5064150;28;20024;-86
2022/08/30 09:06:19;;;;;;;15.30;10.80;;;;;;;22.54;65.76;94224.78;5063764;28;20322;-95
2022/08/30 09:08:44;;;;;;;19.40;10.98;;;;;;;22.68;65.04;94213.22;5063993;28;20021;-87
2022/08/30 09:11:15;;;;;;;15.57;10.48;;;;;;;22.81;64.65;94220.63;5067943;28;20028;-92
2022/08/30 09:13:44;;;;;;;15.73;10.20;;;;;;;23.02;64.35;94211.03;5071570;28;20029;-95
2022/08/30 09:16:49;;;;;;;18.10;9.90;;;;;;;23.21;62.89;94209.91;5071321;28;20021;-87
2022/08/30 09:19:29;;;;;;;16.70;8.57;;;;;;;23.43;61.39;94211.50;5068010;28;20385;-94
2022/08/30 09:22:01;;;;;;;18.98;8.80;;;;;;;23.59;58.89;94208.41;5069828;28;20028;-95
2022/08/30 09:24:39;;;;;;;17.63;9.68;;;;;;;23.78;58.18;94209.22;5070129;28;20032;-88
2022/08/30 09:27:36;;;;;;;12.50;8.45;;;;;;;24.00;57.98;94210.00;5067189;28;20017;-89
2022/08/30 09:30:26;;;;;;;14.02;7.03;;;;;;;24.10;52.42;94217.38;5063865;28;20028;-91
2022/08/30 09:33:02;;;;;;;21.75;9.88;;;;;;;24.04;55.14;94218.94;5065586;28;20043;-93
2022/08/30 09:35:45;;;;;;;18.00;11.48;;;;;;;23.76;57.82;94215.03;5068673;28;20028;-94
2022/08/30 09:38:31;;;;;;;22.42;11.43;;;;;;;23.69;58.21;94225.13;5068127;28;20096;-93
2022/08/30 09:41:01;;;;;;;21.90;11.27;;;;;;;23.59;59.12;94213.88;5067928;28;20039;-92
2022/08/30 09:43:35;;;;;;;29.38;10.73;;;;;;;23.52;59.50;94227.44;5067985;28;20063;-94
2022/08/30 09:46:12;;;;;;;19.88;10.43;;;;;;;23.54;59.51;94224.34;5068864;28;20096;-94
2022/08/30 09:48:46;;;;;;;18.67;11.93;;;;;;;23.63;58.97;94222.81;5068734;28;20032;-94
2022/08/30 09:51:21;;;;;;;24.20;11.85;;;;;;;23.71;58.11;94229.03;5068410;28;20092;-95
2022/08/30 09:53:56;;;;;;;18.20;11.90;;;;;;;23.67;57.00;94216.56;5067569;28;20049;-88
2022/08/30 09:56:42;;;;;;;18.17;11.18;;;;;;;23.64;58.80;94220.84;5066823;28;20088;-87
2022/08/30 09:59:15;;;;;;;17.27;10.48;;;;;;;23.71;58.30;94215.44;5065517;28;20079;-88
2022/08/30 10:01:54;;;;;;;22.33;11.23;;;;;;;23.94;58.19;94208.84;5066565;28;20345;-88
2022/08/30 10:04:31;;;;;;;17.50;11.40;;;;;;;24.11;56.18;94207.28;5066695;28;20017;-91
2022/08/30 10:07:18;;;;;;;15.50;10.27;;;;;;;24.28;56.05;94205.69;5065718;28;20029;-87
2022/08/30 10:09:50;;;;;;;17.33;9.77;;;;;;;24.59;54.31;94198.63;5068238;28;20052;-88
2022/08/30 10:12:18;;;;;;;21.73;10.77;;;;;;;24.75;54.63;94190.78;5065352;28;20233;-85
2022/08/30 10:14:50;;;;;;;21.40;9.88;;;;;;;24.95;54.42;94188.38;5066379;28;20303;-86
2022/08/30 10:17:25;;;;;;;;;;;;;;;25.14;53.92;94180.88;5066481;28;20029;-85
2022/08/30 10:20:07;;;;;;;18.58;8.05;;;;;;;25.44;51.68;94180.28;5065995;28;20138;-86
2022/08/30 10:22:49;;;;;;;17.17;8.68;;;;;;;25.64;50.13;94172.34;5064938;28;20103;-85
2022/08/30 10:25:21;;;;;;;12.82;7.18;;;;;;;25.87;48.79;94174.53;5065686;28;20215;-85
2022/08/30 10:28:04;;;;;;;16.13;8.05;;;;;;;26.14;48.86;94169.22;5065637;28;20016;-84
2022/08/30 10:30:35;;;;;;;17.38;8.77;;;;;;;26.31;49.35;94172.19;5064227;28;20020;-84
2022/08/30 10:33:26;;;;;;;16.33;8.30;;;;;;;26.48;48.08;94168.50;5065466;28;20021;-85
2022/08/30 10:35:56;;;;;;;18.35;8.95;;;;;;;26.63;45.70;94160.16;5062483;28;20379;-85
2022/08/30 10:38:33;;;;;;;20.38;7.80;;;;;;;26.67;45.47;94163.63;5065257;28;20338;-85
2022/08/30 10:41:27;;;;;;;15.48;8.00;;;;;;;26.88;46.79;94162.56;5065172;28;20192;-85
2022/08/30 10:44:05;;;;;;;17.92;8.68;;;;;;;27.17;46.43;94158.28;5065221;28;20020;-86
2022/08/30 10:46:37;;;;;;;19.77;8.05;;;;;;;27.35;44.97;94166.25;5065079;28;20097;-86
2022/08/30 10:49:11;;;;;;;13.68;7.50;;;;;;;27.55;44.37;94157.38;5065232;28;20052;-86
2022/08/30 10:51:57;;;;;;;18.38;7.90;;;;;;;27.68;43.56;94157.53;5065304;28;20041;-86
2022/08/30 10:54:40;;;;;;;18.23;7.97;;;;;;;27.98;44.41;94151.22;5063619;28;20128;-86
2022/08/30 10:57:06;;;;;;;14.48;8.55;;;;;;;28.23;44.44;94153.53;5065168;28;20024;-86
2022/08/30 10:59:35;;;;;;;16.65;10.10;;;;;;;28.27;44.13;94156.97;5064689;28;20480;-87
2022/08/30 11:02:48;;;;;;;19.95;9.77;;;;;;;28.58;44.58;94157.56;5066003;28;20047;-90
2022/08/30 11:05:16;;;;;;;17.70;10.90;;;;;;;28.76;43.43;94148.19;5058016;28;20028;-89
2022/08/30 11:07:58;;;;;;;25.45;10.07;;;;;;;28.91;43.37;94141.22;5065814;28;20045;-92
2022/08/30 11:11:05;;;;;;;25.38;10.05;;;;;;;28.91;43.10;94141.22;5066972;28;20041;-90
2022/08/30 11:13:34;;;;;;;21.48;9.57;;;;;;;28.93;42.38;94146.31;5057006;28;20036;-91
2022/08/30 11:16:14;;;;;;;23.45;10.27;;;;;;;28.89;43.04;94142.88;5065035;28;20031;-87
2022/08/30 11:18:57;;;;;;;22.08;10.98;;;;;;;28.89;43.20;94146.38;5066038;28;20110;-93
2022/08/30 11:21:29;;;;;;;24.77;11.40;;;;;;;28.73;42.71;94132.59;5064791;28;20107;-91
2022/08/30 11:24:10;;;;;;;24.08;10.02;;;;;;;28.68;43.16;94135.84;5064629;28;20098;-86
2022/08/30 11:26:44;;;;;;;19.15;10.68;;;;;;;28.57;42.68;94128.59;5066351;28;20029;-95
2022/08/30 11:29:34;;;;;;;27.92;10.30;;;;;;;28.64;42.73;94126.91;5065745;28;20324;-91
2022/08/30 11:32:12;;;;;;;22.55;10.32;;;;;;;28.71;42.28;94124.03;5066099;28;20144;-87
2022/08/30 11:34:46;;;;;;;18.63;10.05;;;;;;;28.70;42.24;94131.50;5064893;28;20331;-93
2022/08/30 11:37:43;;;;;;;24.83;9.98;;;;;;;28.63;42.26;94126.13;5065366;28;20028;-92
2022/08/30 11:40:10;;;;;;;21.90;9.95;;;;;;;28.58;42.56;94124.66;5065325;28;20037;-91
2022/08/30 11:42:44;;;;;;;22.25;8.93;;;;;;;28.51;41.88;94124.03;5065282;28;20086;-91
2022/08/30 11:45:21;;;;;;;17.92;8.82;;;;;;;28.42;41.68;94128.09;5064770;28;20028;-91